sensor_id;sensor_type;location;lat;lon;timestamp;pressure;altitude;pressure_sealevel;temperature;humidity
67430;BME280;54298;52.076;5.264;2023-09-19T00:01:06;100606.0;;;15.66;89.24
67430;BME280;54298;52.076;5.264;2023-09-19T00:02:43;100607.0;;;15.75;89.27
67430;BME280;54298;52.076;5.264;2023-09-19T00:05:55;100608.0;;;15.7;89.48
67430;BME280;54298;52.076;5.264;2023-09-19T00:07:33;100609.0;;;15.74;89.22
67430;BME280;54298;52.076;5.264;2023-09-19T00:09:09;100618.0;;;15.7;89.69
67430;BME280;54298;52.076;5.264;2023-09-19T00:10:45;100626.0;;;15.72;89.57
67430;BME280;54298;52.076;5.264;2023-09-19T00:13:57;100619.0;;;15.68;89.24
67430;BME280;54298;52.076;5.264;2023-09-19T00:15:37;100620.0;;;15.69;89.46
67430;BME280;54298;52.076;5.264;2023-09-19T00:17:15;100621.0;;;15.65;89.47
67430;BME280;54298;52.076;5.264;2023-09-19T00:20:27;100625.0;;;15.63;89.45
67430;BME280;54298;52.076;5.264;2023-09-19T00:22:03;100622.0;;;15.7;89.05
67430;BME280;54298;52.076;5.264;2023-09-19T00:23:39;100621.0;;;15.63;89.41
67430;BME280;54298;52.076;5.264;2023-09-19T00:25:15;100622.0;;;15.62;89.65
67430;BME280;54298;52.076;5.264;2023-09-19T00:28:27;100622.0;;;15.73;89.32
67430;BME280;54298;52.076;5.264;2023-09-19T00:30:05;100625.0;;;15.71;89.7
67430;BME280;54298;52.076;5.264;2023-09-19T00:31:43;100633.0;;;15.74;89.53
67430;BME280;54298;52.076;5.264;2023-09-19T00:34:55;100634.0;;;15.76;89.59
67430;BME280;54298;52.076;5.264;2023-09-19T00:36:31;100634.0;;;15.77;89.71
67430;BME280;54298;52.076;5.264;2023-09-19T00:38:07;100630.0;;;15.69;89.84
67430;BME280;54298;52.076;5.264;2023-09-19T00:41:19;100628.0;;;15.76;90.23
67430;BME280;54298;52.076;5.264;2023-09-19T00:42:57;100630.0;;;15.77;90.41
67430;BME280;54298;52.076;5.264;2023-09-19T00:44:33;100632.0;;;15.8;90.36
67430;BME280;54298;52.076;5.264;2023-09-19T00:47:48;100638.0;;;15.87;90.17
67430;BME280;54298;52.076;5.264;2023-09-19T00:49:24;100636.0;;;15.8;90.13
67430;BME280;54298;52.076;5.264;2023-09-19T00:51:02;100639.0;;;15.88;90.33
67430;BME280;54298;52.076;5.264;2023-09-19T00:52:42;100640.0;;;15.94;90.22
67430;BME280;54298;52.076;5.264;2023-09-19T00:55:54;100638.0;;;15.99;90.23
67430;BME280;54298;52.076;5.264;2023-09-19T00:57:31;100638.0;;;15.98;90.22
67430;BME280;54298;52.076;5.264;2023-09-19T00:59:08;100647.0;;;15.96;90.38
67430;BME280;54298;52.076;5.264;2023-09-19T01:02:21;100646.0;;;16.07;89.96
67430;BME280;54298;52.076;5.264;2023-09-19T01:03:57;100650.0;;;16.02;89.88
67430;BME280;54298;52.076;5.264;2023-09-19T01:05:33;100648.0;;;16.11;89.7
67430;BME280;54298;52.076;5.264;2023-09-19T01:07:10;100648.0;;;16.15;89.46
67430;BME280;54298;52.076;5.264;2023-09-19T01:10:22;100653.0;;;16.11;89.24
67430;BME280;54298;52.076;5.264;2023-09-19T01:12:01;100652.0;;;16.16;89.31
67430;BME280;54298;52.076;5.264;2023-09-19T01:13:48;100650.0;;;16.04;89.36
67430;BME280;54298;52.076;5.264;2023-09-19T01:15:40;100646.0;;;16.13;89.36
67430;BME280;54298;52.076;5.264;2023-09-19T01:19:38;100645.0;;;16.0;89.9
67430;BME280;54298;52.076;5.264;2023-09-19T01:21:37;100651.0;;;16.11;89.91
67430;BME280;54298;52.076;5.264;2023-09-19T01:23:26;100656.0;;;16.11;90.14
67430;BME280;54298;52.076;5.264;2023-09-19T01:25:22;100655.0;;;16.05;90.07
67430;BME280;54298;52.076;5.264;2023-09-19T01:27:25;100657.0;;;16.11;89.86
67430;BME280;54298;52.076;5.264;2023-09-19T01:29:26;100661.0;;;16.06;89.36
67430;BME280;54298;52.076;5.264;2023-09-19T01:31:09;100662.0;;;16.11;89.14
67430;BME280;54298;52.076;5.264;2023-09-19T01:32:47;100649.0;;;16.06;88.84
67430;BME280;54298;52.076;5.264;2023-09-19T01:34:25;100655.0;;;16.13;88.61
67430;BME280;54298;52.076;5.264;2023-09-19T01:37:37;100656.0;;;16.09;88.4
67430;BME280;54298;52.076;5.264;2023-09-19T01:39:14;100657.0;;;16.09;88.44
67430;BME280;54298;52.076;5.264;2023-09-19T01:40:55;100660.0;;;16.05;88.74
67430;BME280;54298;52.076;5.264;2023-09-19T01:42:42;100663.0;;;16.0;89.05
67430;BME280;54298;52.076;5.264;2023-09-19T01:46:21;100666.0;;;15.92;89.44
67430;BME280;54298;52.076;5.264;2023-09-19T01:48:19;100672.0;;;15.99;88.86
67430;BME280;54298;52.076;5.264;2023-09-19T01:50:02;100665.0;;;16.03;88.34
67430;BME280;54298;52.076;5.264;2023-09-19T01:51:55;100666.0;;;16.02;88.49
67430;BME280;54298;52.076;5.264;2023-09-19T01:53:41;100667.0;;;16.02;88.38
67430;BME280;54298;52.076;5.264;2023-09-19T01:55:20;100667.0;;;15.99;87.73
67430;BME280;54298;52.076;5.264;2023-09-19T01:58:45;100672.0;;;15.92;87.16
67430;BME280;54298;52.076;5.264;2023-09-19T02:00:25;100673.0;;;16.02;86.97
67430;BME280;54298;52.076;5.264;2023-09-19T02:02:04;100676.0;;;15.91;86.76
67430;BME280;54298;52.076;5.264;2023-09-19T02:03:43;100676.0;;;15.85;85.97
67430;BME280;54298;52.076;5.264;2023-09-19T02:07:00;100676.0;;;15.82;85.49
67430;BME280;54298;52.076;5.264;2023-09-19T02:08:37;100677.0;;;15.95;84.92
67430;BME280;54298;52.076;5.264;2023-09-19T02:10:13;100677.0;;;15.81;84.87
67430;BME280;54298;52.076;5.264;2023-09-19T02:13:26;100677.0;;;15.92;84.85
67430;BME280;54298;52.076;5.264;2023-09-19T02:15:02;100674.0;;;15.93;85.04
67430;BME280;54298;52.076;5.264;2023-09-19T02:16:38;100667.0;;;15.93;85.4
67430;BME280;54298;52.076;5.264;2023-09-19T02:18:14;100667.0;;;15.97;85.41
67430;BME280;54298;52.076;5.264;2023-09-19T02:21:26;100666.0;;;15.92;85.68
67430;BME280;54298;52.076;5.264;2023-09-19T02:23:03;100664.0;;;15.98;85.58
67430;BME280;54298;52.076;5.264;2023-09-19T02:24:39;100677.0;;;15.89;85.66
67430;BME280;54298;52.076;5.264;2023-09-19T02:27:51;100673.0;;;15.93;85.63
67430;BME280;54298;52.076;5.264;2023-09-19T02:29:28;100673.0;;;15.8;85.66
67430;BME280;54298;52.076;5.264;2023-09-19T02:31:04;100678.0;;;15.85;85.52
67430;BME280;54298;52.076;5.264;2023-09-19T02:34:16;100681.0;;;15.79;85.27
67430;BME280;54298;52.076;5.264;2023-09-19T02:35:54;100684.0;;;15.77;85.85
67430;BME280;54298;52.076;5.264;2023-09-19T02:37:31;100685.0;;;15.78;85.57
67430;BME280;54298;52.076;5.264;2023-09-19T02:39:07;100690.0;;;15.72;85.14
67430;BME280;54298;52.076;5.264;2023-09-19T02:42:19;100695.0;;;15.67;85.05
67430;BME280;54298;52.076;5.264;2023-09-19T02:43:55;100689.0;;;15.72;84.95
67430;BME280;54298;52.076;5.264;2023-09-19T02:45:32;100697.0;;;15.7;84.91
67430;BME280;54298;52.076;5.264;2023-09-19T02:48:44;100695.0;;;15.62;84.82
67430;BME280;54298;52.076;5.264;2023-09-19T02:50:20;100693.0;;;15.5;84.79
67430;BME280;54298;52.076;5.264;2023-09-19T02:51:56;100696.0;;;15.6;84.31
67430;BME280;54298;52.076;5.264;2023-09-19T02:55:08;100690.0;;;15.47;84.32
67430;BME280;54298;52.076;5.264;2023-09-19T02:56:44;100695.0;;;15.27;84.29
67430;BME280;54298;52.076;5.264;2023-09-19T02:58:20;100699.0;;;15.17;84.08
67430;BME280;54298;52.076;5.264;2023-09-19T03:01:33;100694.0;;;15.33;83.88
67430;BME280;54298;52.076;5.264;2023-09-19T03:03:09;100695.0;;;15.18;83.66
67430;BME280;54298;52.076;5.264;2023-09-19T03:04:45;100696.0;;;15.17;83.3
67430;BME280;54298;52.076;5.264;2023-09-19T03:06:21;100693.0;;;15.06;82.75
67430;BME280;54298;52.076;5.264;2023-09-19T03:09:33;100687.0;;;15.15;83.25
67430;BME280;54298;52.076;5.264;2023-09-19T03:11:09;100689.0;;;15.07;83.1
67430;BME280;54298;52.076;5.264;2023-09-19T03:15:57;100683.0;;;15.02;82.4
67430;BME280;54298;52.076;5.264;2023-09-19T03:17:34;100684.0;;;14.98;82.04
67430;BME280;54298;52.076;5.264;2023-09-19T03:19:10;100681.0;;;14.81;82.08
67430;BME280;54298;52.076;5.264;2023-09-19T03:22:28;100680.0;;;14.83;82.73
67430;BME280;54298;52.076;5.264;2023-09-19T03:24:04;100684.0;;;14.97;81.95
67430;BME280;54298;52.076;5.264;2023-09-19T03:25:40;100682.0;;;14.76;82.2
67430;BME280;54298;52.076;5.264;2023-09-19T03:27:16;100688.0;;;14.76;82.06
67430;BME280;54298;52.076;5.264;2023-09-19T03:30:28;100687.0;;;14.8;81.62
67430;BME280;54298;52.076;5.264;2023-09-19T03:32:05;100694.0;;;14.87;81.53
67430;BME280;54298;52.076;5.264;2023-09-19T03:33:42;100700.0;;;14.89;81.47
67430;BME280;54298;52.076;5.264;2023-09-19T03:36:55;100693.0;;;14.93;80.8
67430;BME280;54298;52.076;5.264;2023-09-19T03:38:31;100687.0;;;14.84;80.58
67430;BME280;54298;52.076;5.264;2023-09-19T03:40:09;100682.0;;;14.92;80.56
67430;BME280;54298;52.076;5.264;2023-09-19T03:43:21;100680.0;;;14.87;79.61
67430;BME280;54298;52.076;5.264;2023-09-19T03:44:57;100675.0;;;14.93;79.72
67430;BME280;54298;52.076;5.264;2023-09-19T03:46:33;100676.0;;;14.95;79.3
67430;BME280;54298;52.076;5.264;2023-09-19T03:48:10;100677.0;;;14.94;78.94
67430;BME280;54298;52.076;5.264;2023-09-19T03:51:22;100683.0;;;14.81;79.03
67430;BME280;54298;52.076;5.264;2023-09-19T03:52:58;100682.0;;;14.82;79.22
67430;BME280;54298;52.076;5.264;2023-09-19T03:54:34;100683.0;;;14.79;78.91
67430;BME280;54298;52.076;5.264;2023-09-19T03:57:48;100682.0;;;14.73;79.08
67430;BME280;54298;52.076;5.264;2023-09-19T03:59:24;100687.0;;;14.75;78.95
67430;BME280;54298;52.076;5.264;2023-09-19T04:01:00;100695.0;;;14.74;78.64
67430;BME280;54298;52.076;5.264;2023-09-19T04:04:13;100694.0;;;14.67;79.02
67430;BME280;54298;52.076;5.264;2023-09-19T04:05:50;100700.0;;;14.62;78.48
67430;BME280;54298;52.076;5.264;2023-09-19T04:07:26;100706.0;;;14.53;78.56
67430;BME280;54298;52.076;5.264;2023-09-19T04:10:41;100705.0;;;14.52;78.55
67430;BME280;54298;52.076;5.264;2023-09-19T04:12:18;100710.0;;;14.56;78.52
67430;BME280;54298;52.076;5.264;2023-09-19T04:13:54;100711.0;;;14.52;77.97
67430;BME280;54298;52.076;5.264;2023-09-19T04:15:30;100719.0;;;14.64;77.84
67430;BME280;54298;52.076;5.264;2023-09-19T04:18:42;100719.0;;;14.53;78.08
67430;BME280;54298;52.076;5.264;2023-09-19T04:20:19;100723.0;;;14.53;77.89
67430;BME280;54298;52.076;5.264;2023-09-19T04:21:55;100723.0;;;14.51;78.05
67430;BME280;54298;52.076;5.264;2023-09-19T04:25:07;100734.0;;;14.59;77.92
67430;BME280;54298;52.076;5.264;2023-09-19T04:26:43;100730.0;;;14.61;77.99
67430;BME280;54298;52.076;5.264;2023-09-19T04:28:19;100730.0;;;14.7;77.38
67430;BME280;54298;52.076;5.264;2023-09-19T04:31:31;100730.0;;;14.64;77.39
67430;BME280;54298;52.076;5.264;2023-09-19T04:33:07;100736.0;;;14.67;77.55
67430;BME280;54298;52.076;5.264;2023-09-19T04:34:43;100734.0;;;14.56;78.3
67430;BME280;54298;52.076;5.264;2023-09-19T04:36:19;100738.0;;;14.62;77.48
67430;BME280;54298;52.076;5.264;2023-09-19T04:39:32;100738.0;;;14.54;77.36
67430;BME280;54298;52.076;5.264;2023-09-19T04:41:08;100747.0;;;14.61;77.25
67430;BME280;54298;52.076;5.264;2023-09-19T04:42:44;100748.0;;;14.78;77.22
67430;BME280;54298;52.076;5.264;2023-09-19T04:45:56;100751.0;;;14.8;77.13
67430;BME280;54298;52.076;5.264;2023-09-19T04:47:32;100751.0;;;14.84;77.33
67430;BME280;54298;52.076;5.264;2023-09-19T04:49:08;100748.0;;;14.76;77.8
67430;BME280;54298;52.076;5.264;2023-09-19T04:52:20;100751.0;;;14.8;77.22
67430;BME280;54298;52.076;5.264;2023-09-19T04:53:57;100749.0;;;14.69;77.36
67430;BME280;54298;52.076;5.264;2023-09-19T04:55:33;100751.0;;;14.72;77.25
67430;BME280;54298;52.076;5.264;2023-09-19T04:58:45;100752.0;;;14.64;77.75
67430;BME280;54298;52.076;5.264;2023-09-19T05:00:22;100751.0;;;14.66;77.41
67430;BME280;54298;52.076;5.264;2023-09-19T05:01:58;100747.0;;;14.63;77.36
67430;BME280;54298;52.076;5.264;2023-09-19T05:03:34;100746.0;;;14.57;77.41
67430;BME280;54298;52.076;5.264;2023-09-19T05:06:47;100749.0;;;14.67;77.39
67430;BME280;54298;52.076;5.264;2023-09-19T05:08:23;100753.0;;;14.57;77.37
67430;BME280;54298;52.076;5.264;2023-09-19T05:10:00;100752.0;;;14.63;77.52
67430;BME280;54298;52.076;5.264;2023-09-19T05:13:12;100749.0;;;14.63;77.66
67430;BME280;54298;52.076;5.264;2023-09-19T05:14:48;100752.0;;;14.53;77.86
67430;BME280;54298;52.076;5.264;2023-09-19T05:16:24;100749.0;;;14.5;77.91
67430;BME280;54298;52.076;5.264;2023-09-19T05:19:36;100749.0;;;14.51;78.06
67430;BME280;54298;52.076;5.264;2023-09-19T05:21:12;100758.0;;;14.5;77.94
67430;BME280;54298;52.076;5.264;2023-09-19T05:22:48;100755.0;;;14.53;78.24
67430;BME280;54298;52.076;5.264;2023-09-19T05:24:24;100756.0;;;14.5;78.37
67430;BME280;54298;52.076;5.264;2023-09-19T05:27:36;100746.0;;;14.39;78.88
67430;BME280;54298;52.076;5.264;2023-09-19T05:29:12;100749.0;;;14.57;78.55
67430;BME280;54298;52.076;5.264;2023-09-19T05:30:48;100752.0;;;14.54;78.66
67430;BME280;54298;52.076;5.264;2023-09-19T05:34:00;100753.0;;;14.6;78.44
67430;BME280;54298;52.076;5.264;2023-09-19T05:35:36;100748.0;;;14.69;78.41
67430;BME280;54298;52.076;5.264;2023-09-19T05:37:13;100743.0;;;14.64;78.73
67430;BME280;54298;52.076;5.264;2023-09-19T05:40:25;100743.0;;;14.56;79.24
67430;BME280;54298;52.076;5.264;2023-09-19T05:42:02;100746.0;;;14.47;79.19
67430;BME280;54298;52.076;5.264;2023-09-19T05:43:38;100744.0;;;14.58;79.33
67430;BME280;54298;52.076;5.264;2023-09-19T05:46:50;100745.0;;;14.66;79.0
67430;BME280;54298;52.076;5.264;2023-09-19T05:48:26;100753.0;;;14.74;78.81
67430;BME280;54298;52.076;5.264;2023-09-19T05:50:03;100753.0;;;14.76;79.12
67430;BME280;54298;52.076;5.264;2023-09-19T05:51:38;100755.0;;;14.78;78.83
67430;BME280;54298;52.076;5.264;2023-09-19T05:54:50;100758.0;;;14.76;78.89
67430;BME280;54298;52.076;5.264;2023-09-19T05:56:27;100760.0;;;14.76;78.88
67430;BME280;54298;52.076;5.264;2023-09-19T05:58:03;100764.0;;;14.74;79.09
67430;BME280;54298;52.076;5.264;2023-09-19T06:01:15;100762.0;;;14.84;78.94
67430;BME280;54298;52.076;5.264;2023-09-19T06:02:51;100765.0;;;14.94;78.69
67430;BME280;54298;52.076;5.264;2023-09-19T06:04:27;100767.0;;;14.88;78.61
67430;BME280;54298;52.076;5.264;2023-09-19T06:07:39;100771.0;;;14.88;78.58
67430;BME280;54298;52.076;5.264;2023-09-19T06:09:15;100775.0;;;14.94;78.67
67430;BME280;54298;52.076;5.264;2023-09-19T06:10:51;100775.0;;;14.91;78.86
67430;BME280;54298;52.076;5.264;2023-09-19T06:14:04;100780.0;;;14.9;78.98
67430;BME280;54298;52.076;5.264;2023-09-19T06:15:40;100780.0;;;15.07;78.7
67430;BME280;54298;52.076;5.264;2023-09-19T06:17:16;100778.0;;;15.07;78.72
67430;BME280;54298;52.076;5.264;2023-09-19T06:18:52;100784.0;;;15.08;79.3
67430;BME280;54298;52.076;5.264;2023-09-19T06:22:04;100783.0;;;15.13;78.61
67430;BME280;54298;52.076;5.264;2023-09-19T06:23:40;100780.0;;;15.23;78.58
67430;BME280;54298;52.076;5.264;2023-09-19T06:25:17;100785.0;;;15.21;78.55
67430;BME280;54298;52.076;5.264;2023-09-19T06:28:29;100786.0;;;15.09;79.27
67430;BME280;54298;52.076;5.264;2023-09-19T06:30:07;100777.0;;;15.13;79.49
67430;BME280;54298;52.076;5.264;2023-09-19T06:31:43;100783.0;;;15.06;79.72
67430;BME280;54298;52.076;5.264;2023-09-19T06:34:55;100775.0;;;15.21;79.5
67430;BME280;54298;52.076;5.264;2023-09-19T06:36:31;100777.0;;;15.26;79.37
67430;BME280;54298;52.076;5.264;2023-09-19T06:38:07;100777.0;;;15.16;79.62
67430;BME280;54298;52.076;5.264;2023-09-19T06:39:43;100774.0;;;15.38;79.28
67430;BME280;54298;52.076;5.264;2023-09-19T06:42:55;100772.0;;;15.3;79.38
67430;BME280;54298;52.076;5.264;2023-09-19T06:44:32;100777.0;;;15.42;79.44
67430;BME280;54298;52.076;5.264;2023-09-19T06:46:08;100783.0;;;15.38;79.49
67430;BME280;54298;52.076;5.264;2023-09-19T06:49:20;100776.0;;;15.31;79.67
67430;BME280;54298;52.076;5.264;2023-09-19T06:50:57;100776.0;;;15.46;79.41
67430;BME280;54298;52.076;5.264;2023-09-19T06:52:33;100780.0;;;15.38;79.77
67430;BME280;54298;52.076;5.264;2023-09-19T06:55:45;100780.0;;;15.47;79.73
67430;BME280;54298;52.076;5.264;2023-09-19T06:57:21;100773.0;;;15.44;79.95
67430;BME280;54298;52.076;5.264;2023-09-19T06:58:57;100781.0;;;15.47;80.16
67430;BME280;54298;52.076;5.264;2023-09-19T07:02:10;100775.0;;;15.48;79.98
67430;BME280;54298;52.076;5.264;2023-09-19T07:03:46;100776.0;;;15.57;79.97
67430;BME280;54298;52.076;5.264;2023-09-19T07:05:22;100778.0;;;15.64;79.75
67430;BME280;54298;52.076;5.264;2023-09-19T07:06:58;100778.0;;;15.59;79.8
67430;BME280;54298;52.076;5.264;2023-09-19T07:10:10;100778.0;;;15.62;79.88
67430;BME280;54298;52.076;5.264;2023-09-19T07:11:46;100781.0;;;15.49;80.08
67430;BME280;54298;52.076;5.264;2023-09-19T07:13:22;100773.0;;;15.58;80.19
67430;BME280;54298;52.076;5.264;2023-09-19T07:16:34;100784.0;;;15.58;80.36
67430;BME280;54298;52.076;5.264;2023-09-19T07:18:11;100782.0;;;15.62;80.3
67430;BME280;54298;52.076;5.264;2023-09-19T07:19:47;100786.0;;;15.58;80.14
67430;BME280;54298;52.076;5.264;2023-09-19T07:22:59;100795.0;;;15.73;79.91
67430;BME280;54298;52.076;5.264;2023-09-19T07:24:35;100799.0;;;15.71;79.94
67430;BME280;54298;52.076;5.264;2023-09-19T07:26:11;100802.0;;;15.73;79.91
67430;BME280;54298;52.076;5.264;2023-09-19T07:27:47;100795.0;;;15.77;79.66
67430;BME280;54298;52.076;5.264;2023-09-19T07:31:01;100795.0;;;15.87;79.64
67430;BME280;54298;52.076;5.264;2023-09-19T07:32:38;100809.0;;;15.88;79.36
67430;BME280;54298;52.076;5.264;2023-09-19T07:34:14;100801.0;;;15.89;79.27
67430;BME280;54298;52.076;5.264;2023-09-19T07:37:26;100803.0;;;15.88;79.23
67430;BME280;54298;52.076;5.264;2023-09-19T07:39:02;100801.0;;;16.02;79.03
67430;BME280;54298;52.076;5.264;2023-09-19T07:40:38;100799.0;;;16.09;78.94
67430;BME280;54298;52.076;5.264;2023-09-19T07:43:51;100796.0;;;16.02;78.61
67430;BME280;54298;52.076;5.264;2023-09-19T07:45:27;100799.0;;;15.96;78.77
67430;BME280;54298;52.076;5.264;2023-09-19T07:47:03;100809.0;;;15.98;79.0
67430;BME280;54298;52.076;5.264;2023-09-19T07:50:16;100797.0;;;15.96;78.83
67430;BME280;54298;52.076;5.264;2023-09-19T07:51:53;100806.0;;;15.95;78.97
67430;BME280;54298;52.076;5.264;2023-09-19T07:53:29;100805.0;;;16.0;78.77
67430;BME280;54298;52.076;5.264;2023-09-19T07:55:05;100805.0;;;16.12;78.48
67430;BME280;54298;52.076;5.264;2023-09-19T07:58:18;100810.0;;;16.09;78.86
67430;BME280;54298;52.076;5.264;2023-09-19T07:59:54;100810.0;;;16.15;78.59
67430;BME280;54298;52.076;5.264;2023-09-19T08:01:30;100809.0;;;16.2;78.52
67430;BME280;54298;52.076;5.264;2023-09-19T08:04:43;100812.0;;;16.45;77.63
67430;BME280;54298;52.076;5.264;2023-09-19T08:06:19;100806.0;;;16.48;77.3
67430;BME280;54298;52.076;5.264;2023-09-19T08:07:55;100812.0;;;16.56;77.34
67430;BME280;54298;52.076;5.264;2023-09-19T08:11:07;100806.0;;;16.68;76.84
67430;BME280;54298;52.076;5.264;2023-09-19T08:12:43;100806.0;;;16.8;76.3
67430;BME280;54298;52.076;5.264;2023-09-19T08:14:19;100813.0;;;16.88;76.11
67430;BME280;54298;52.076;5.264;2023-09-19T08:15:55;100809.0;;;16.88;75.98
67430;BME280;54298;52.076;5.264;2023-09-19T08:19:10;100821.0;;;16.91;75.97
67430;BME280;54298;52.076;5.264;2023-09-19T08:20:49;100807.0;;;16.77;75.86
67430;BME280;54298;52.076;5.264;2023-09-19T08:22:26;100811.0;;;16.95;76.19
67430;BME280;54298;52.076;5.264;2023-09-19T08:25:38;100805.0;;;16.95;75.45
67430;BME280;54298;52.076;5.264;2023-09-19T08:27:14;100797.0;;;16.97;75.7
67430;BME280;54298;52.076;5.264;2023-09-19T08:28:50;100790.0;;;17.02;75.63
67430;BME280;54298;52.076;5.264;2023-09-19T08:32:03;100802.0;;;17.02;75.33
67430;BME280;54298;52.076;5.264;2023-09-19T08:33:39;100806.0;;;16.98;75.47
67430;BME280;54298;52.076;5.264;2023-09-19T08:35:15;100802.0;;;16.97;75.55
67430;BME280;54298;52.076;5.264;2023-09-19T08:36:52;100800.0;;;16.97;75.53
67430;BME280;54298;52.076;5.264;2023-09-19T08:41:42;100805.0;;;17.11;75.44
67430;BME280;54298;52.076;5.264;2023-09-19T08:43:21;100797.0;;;17.05;75.36
67430;BME280;54298;52.076;5.264;2023-09-19T08:46:37;100791.0;;;17.06;75.49
67430;BME280;54298;52.076;5.264;2023-09-19T08:48:22;100796.0;;;17.11;75.36
67430;BME280;54298;52.076;5.264;2023-09-19T08:50:04;100793.0;;;17.07;75.41
67430;BME280;54298;52.076;5.264;2023-09-19T08:51:53;100793.0;;;17.21;74.56
67430;BME280;54298;52.076;5.264;2023-09-19T08:53:41;100800.0;;;17.12;74.36
67430;BME280;54298;52.076;5.264;2023-09-19T08:56:55;100796.0;;;17.2;74.13
67430;BME280;54298;52.076;5.264;2023-09-19T08:58:40;100800.0;;;17.16;74.13
67430;BME280;54298;52.076;5.264;2023-09-19T09:00:28;100794.0;;;17.25;74.49
67430;BME280;54298;52.076;5.264;2023-09-19T09:02:04;100796.0;;;17.39;73.97
67430;BME280;54298;52.076;5.264;2023-09-19T09:05:24;100800.0;;;17.37;72.92
67430;BME280;54298;52.076;5.264;2023-09-19T09:07:01;100803.0;;;17.45;72.81
67430;BME280;54298;52.076;5.264;2023-09-19T09:08:38;100795.0;;;17.52;72.66
67430;BME280;54298;52.076;5.264;2023-09-19T09:11:52;100790.0;;;17.75;72.5
67430;BME280;54298;52.076;5.264;2023-09-19T09:13:29;100810.0;;;17.72;71.83
67430;BME280;54298;52.076;5.264;2023-09-19T09:15:06;100800.0;;;17.63;71.13
67430;BME280;54298;52.076;5.264;2023-09-19T09:16:43;100795.0;;;17.68;71.25
67430;BME280;54298;52.076;5.264;2023-09-19T09:19:56;100792.0;;;17.61;71.06
67430;BME280;54298;52.076;5.264;2023-09-19T09:21:31;100787.0;;;17.62;70.48
67430;BME280;54298;52.076;5.264;2023-09-19T09:23:07;100793.0;;;17.81;70.38
67430;BME280;54298;52.076;5.264;2023-09-19T09:26:44;100791.0;;;17.84;70.27
67430;BME280;54298;52.076;5.264;2023-09-19T09:28:21;100784.0;;;17.91;69.67
67430;BME280;54298;52.076;5.264;2023-09-19T09:29:58;100787.0;;;18.02;69.23
67430;BME280;54298;52.076;5.264;2023-09-19T09:31:34;100789.0;;;18.04;69.14
67430;BME280;54298;52.076;5.264;2023-09-19T09:34:50;100780.0;;;18.07;69.33
67430;BME280;54298;52.076;5.264;2023-09-19T09:36:37;100789.0;;;18.18;68.61
67430;BME280;54298;52.076;5.264;2023-09-19T09:38:15;100778.0;;;18.29;68.84
67430;BME280;54298;52.076;5.264;2023-09-19T09:39:53;100776.0;;;18.41;68.42
67430;BME280;54298;52.076;5.264;2023-09-19T09:43:25;100770.0;;;18.36;68.08
67430;BME280;54298;52.076;5.264;2023-09-19T09:45:20;100777.0;;;18.47;67.92
67430;BME280;54298;52.076;5.264;2023-09-19T09:46:56;100761.0;;;18.45;67.86
67430;BME280;54298;52.076;5.264;2023-09-19T09:48:32;100769.0;;;18.5;67.94
67430;BME280;54298;52.076;5.264;2023-09-19T09:50:08;100768.0;;;18.52;67.69
67430;BME280;54298;52.076;5.264;2023-09-19T09:53:27;100770.0;;;18.68;67.23
67430;BME280;54298;52.076;5.264;2023-09-19T09:55:04;100788.0;;;18.57;66.62
67430;BME280;54298;52.076;5.264;2023-09-19T09:56:56;100780.0;;;18.47;66.83
67430;BME280;54298;52.076;5.264;2023-09-19T09:58:33;100772.0;;;18.5;67.14
67430;BME280;54298;52.076;5.264;2023-09-19T10:01:47;100777.0;;;18.55;66.95
67430;BME280;54298;52.076;5.264;2023-09-19T10:03:31;100787.0;;;18.59;66.97
67430;BME280;54298;52.076;5.264;2023-09-19T10:05:12;100780.0;;;18.7;66.47
67430;BME280;54298;52.076;5.264;2023-09-19T10:06:50;100788.0;;;18.79;66.49
67430;BME280;54298;52.076;5.264;2023-09-19T10:10:04;100809.0;;;18.72;66.44
67430;BME280;54298;52.076;5.264;2023-09-19T10:11:42;100784.0;;;18.62;66.33
67430;BME280;54298;52.076;5.264;2023-09-19T10:13:20;100791.0;;;18.7;66.22
67430;BME280;54298;52.076;5.264;2023-09-19T10:16:40;100785.0;;;18.64;66.11
67430;BME280;54298;52.076;5.264;2023-09-19T10:18:19;100791.0;;;18.57;66.22
67430;BME280;54298;52.076;5.264;2023-09-19T10:19:56;100780.0;;;18.52;66.83
67430;BME280;54298;52.076;5.264;2023-09-19T10:21:33;100765.0;;;18.59;66.2
67430;BME280;54298;52.076;5.264;2023-09-19T10:24:49;100774.0;;;18.77;66.2
67430;BME280;54298;52.076;5.264;2023-09-19T10:26:26;100772.0;;;18.78;66.06
67430;BME280;54298;52.076;5.264;2023-09-19T10:28:05;100768.0;;;18.87;65.92
67430;BME280;54298;52.076;5.264;2023-09-19T10:31:21;100745.0;;;18.89;65.84
67430;BME280;54298;52.076;5.264;2023-09-19T10:33:01;100744.0;;;18.93;66.09
67430;BME280;54298;52.076;5.264;2023-09-19T10:34:38;100737.0;;;18.95;65.8
67430;BME280;54298;52.076;5.264;2023-09-19T10:36:17;100741.0;;;18.89;65.81
67430;BME280;54298;52.076;5.264;2023-09-19T10:39:32;100748.0;;;19.02;65.6
67430;BME280;54298;52.076;5.264;2023-09-19T10:41:10;100749.0;;;19.0;65.59
67430;BME280;54298;52.076;5.264;2023-09-19T10:42:49;100748.0;;;19.07;65.73
67430;BME280;54298;52.076;5.264;2023-09-19T10:44:27;100733.0;;;19.07;65.8
67430;BME280;54298;52.076;5.264;2023-09-19T10:47:44;100735.0;;;19.14;65.52
67430;BME280;54298;52.076;5.264;2023-09-19T10:49:20;100727.0;;;19.21;65.58
67430;BME280;54298;52.076;5.264;2023-09-19T10:51:04;100727.0;;;19.31;65.44
67430;BME280;54298;52.076;5.264;2023-09-19T10:54:20;100735.0;;;19.21;64.85
67430;BME280;54298;52.076;5.264;2023-09-19T10:55:59;100739.0;;;19.41;64.91
67430;BME280;54298;52.076;5.264;2023-09-19T10:57:37;100719.0;;;19.25;63.79
67430;BME280;54298;52.076;5.264;2023-09-19T10:59:15;100720.0;;;19.31;64.5
67430;BME280;54298;52.076;5.264;2023-09-19T11:02:30;100725.0;;;19.52;64.72
67430;BME280;54298;52.076;5.264;2023-09-19T11:04:21;100711.0;;;19.61;64.17
67430;BME280;54298;52.076;5.264;2023-09-19T11:06:02;100714.0;;;19.75;63.81
67430;BME280;54298;52.076;5.264;2023-09-19T11:07:57;100719.0;;;19.78;64.22
67430;BME280;54298;52.076;5.264;2023-09-19T11:09:50;100713.0;;;19.52;63.68